CPX330 Details

Departure: Lester B. Pearson International Airport (CYYZ)
Arrival: Washington Dulles International Airport (KIAD) at N/A
Route: RIGUS2 PSB MAPEL2
Notes:


Current Weather Information
CYYZ 191600Z VRB10G16KT 15SM FEW035 SCT042 26/17 A3000 RMK CU2SC2 SLP159 DENSITY ALT 1900FT
KIAD 191652Z 32006KT 10SM FEW050 BKN250 34/21 A3001 RMK AO2 SLP160 T03390206